Time;durP1;ratioP1;P1;durP2;ratioP2;P2;SDS_P1;SDS_P2;PMS_P1;PMS_P2;Temp;Humidity;BMP_temperature;BMP_pressure;BME280_temperature;BME280_humidity;BME280_pressure;Samples;Min_cycle;Max_cycle;Signal;HPM_P1;HPM_P2
2021/03/01 00:01:18;;;;;;;;;24.20;22.80;;;;;13.02;42.83;100281.69;6207326;28;125968;-60
2021/03/01 00:04:20;;;;;;;;;24.60;22.60;;;;;12.88;42.99;100253.75;6205984;28;128536;-60
2021/03/01 00:07:21;;;;;;;;;24.00;22.00;;;;;12.74;43.00;100232.25;6209343;28;126507;-60
2021/03/01 00:10:24;;;;;;;;;29.80;26.00;;;;;12.99;42.77;100263.16;6208726;28;126500;-60
2021/03/01 00:13:25;;;;;;;;;24.00;23.00;;;;;12.96;42.49;100271.66;6208702;28;126420;-60
2021/03/01 00:16:28;;;;;;;;;26.60;21.60;;;;;12.91;42.31;100263.31;6199102;28;126166;-60
2021/03/01 00:19:29;;;;;;;;;25.20;23.60;;;;;12.64;42.42;100265.09;6188801;28;127557;-60
2021/03/01 00:22:31;;;;;;;;;22.60;21.00;;;;;12.67;42.39;100307.97;6184057;28;125880;-60
2021/03/01 00:25:32;;;;;;;;;23.75;20.75;;;;;12.50;42.44;100277.72;6183856;28;126348;-60
2021/03/01 00:28:34;;;;;;;;;22.50;19.00;;;;;12.42;42.39;100279.75;6183865;28;126445;-60
2021/03/01 00:31:35;;;;;;;;;24.00;22.60;;;;;12.57;42.22;100311.03;6182658;28;126457;-60
2021/03/01 00:34:37;;;;;;;;;26.60;22.80;;;;;12.34;42.19;100264.53;6183845;28;126604;-59
2021/03/01 00:37:39;;;;;;;;;24.00;23.00;;;;;12.43;42.06;100284.13;6183426;28;126871;-60
2021/03/01 00:40:55;;;;;;;;;22.33;21.00;;;;;12.30;41.96;100284.06;6195547;28;126029;-60
2021/03/01 00:43:56;;;;;;;;;25.33;23.00;;;;;12.53;41.57;100307.06;6208177;28;127478;-60
2021/03/01 00:46:59;;;;;;;;;28.40;26.00;;;;;12.38;42.09;100300.13;6205396;28;126623;-60
2021/03/01 00:50:00;;;;;;;;;21.00;20.00;;;;;12.49;41.90;100308.50;6200827;28;127584;-60
2021/03/01 00:53:02;;;;;;;;;27.50;24.50;;;;;12.25;41.89;100275.69;6223541;28;127489;-60
2021/03/01 00:56:03;;;;;;;;;25.00;22.80;;;;;12.47;41.86;100318.69;6207662;28;125188;-60
2021/03/01 00:59:05;;;;;;;;;26.50;23.50;;;;;12.43;42.23;100312.00;6207032;28;126349;-61
2021/03/01 01:02:07;;;;;;;;;27.00;23.75;;;;;12.45;41.79;100307.25;6206060;28;125067;-61
2021/03/01 01:05:15;;;;;;;;;27.20;23.60;;;;;12.51;41.90;100308.31;6225755;27;124417;-60
2021/03/01 01:08:16;;;;;;;;;25.60;24.00;;;;;12.47;42.13;100315.97;6211733;28;126794;-59
2021/03/01 01:11:17;;;;;;;;;28.40;24.00;;;;;12.46;41.93;100317.00;6188270;28;126739;-58
2021/03/01 01:14:19;;;;;;;;;27.80;26.00;;;;;12.46;41.62;100313.50;6191028;28;126609;-58
2021/03/01 01:17:20;;;;;;;;;28.00;25.00;;;;;12.44;41.83;100305.56;6206650;28;127494;-58
2021/03/01 01:20:22;;;;;;;;;25.00;23.80;;;;;12.31;41.66;100300.09;6211681;28;127825;-60
2021/03/01 01:23:24;;;;;;;;;26.80;25.20;;;;;12.47;41.54;100318.69;6211964;28;127171;-59
2021/03/01 01:26:25;;;;;;;;;25.40;21.60;;;;;12.07;41.77;100278.94;6211335;28;126957;-59
2021/03/01 01:29:26;;;;;;;;;26.20;24.80;;;;;12.35;42.00;100332.97;6211267;28;128193;-58
2021/03/01 01:32:28;;;;;;;;;25.60;23.00;;;;;12.34;41.84;100332.13;6210250;28;125308;-58
2021/03/01 01:35:29;;;;;;;;;25.00;22.00;;;;;12.33;41.79;100333.16;6211864;28;126620;-58
2021/03/01 01:38:31;;;;;;;;;25.20;22.80;;;;;12.31;41.77;100347.94;6211830;28;126416;-59
2021/03/01 01:41:32;;;;;;;;;24.50;21.50;;;;;12.27;41.76;100347.47;6192168;28;125299;-58
2021/03/01 01:44:34;;;;;;;;;20.00;18.40;;;;;12.27;41.55;100358.28;6196118;28;125272;-59
2021/03/01 01:47:36;;;;;;;;;24.00;22.40;;;;;12.28;41.62;100351.00;6185877;28;127647;-60
2021/03/01 01:50:38;;;;;;;;;28.25;25.25;;;;;12.18;42.11;100343.25;6184922;28;127377;-58
2021/03/01 01:53:40;;;;;;;;;25.00;21.00;;;;;11.85;41.81;100307.84;6184997;28;126288;-58
2021/03/01 01:56:42;;;;;;;;;24.00;22.25;;;;;12.13;42.07;100361.94;6185249;28;125308;-58
2021/03/01 01:59:43;;;;;;;;;27.00;25.00;;;;;12.04;42.18;100350.41;6183100;28;127548;-58
2021/03/01 02:02:54;;;;;;;;;24.60;23.60;;;;;12.01;42.15;100340.00;6185247;28;126433;-58
2021/03/01 02:06:10;;;;;;;;;22.20;20.60;;;;;11.99;42.25;100355.56;6184977;28;124589;-58
2021/03/01 02:09:31;;;;;;;;;28.00;26.00;;;;;11.82;42.26;100315.53;6186679;28;123578;-58
2021/03/01 02:13:07;;;;;;;;;26.00;22.00;;;;;12.03;42.21;100346.03;6189521;28;125994;-58
2021/03/01 02:16:18;;;;;;;;;27.00;24.00;;;;;12.03;42.29;100348.75;6199352;28;127209;-59
2021/03/01 02:19:22;;;;;;;;;26.50;23.50;;;;;12.03;42.35;100350.59;6211235;28;126618;-60
2021/03/01 02:22:23;;;;;;;;;27.00;24.00;;;;;12.02;42.31;100347.06;6210901;28;127332;-60
2021/03/01 02:25:29;;;;;;;;;28.20;24.40;;;;;12.05;42.54;100348.56;6210815;28;127545;-58
2021/03/01 02:28:36;;;;;;;;;24.40;24.40;;;;;12.00;42.25;100351.84;6210794;28;126039;-58
2021/03/01 02:31:42;;;;;;;;;26.00;22.00;;;;;11.70;42.75;100298.97;6210524;28;125643;-61
2021/03/01 02:34:46;;;;;;;;;23.60;22.00;;;;;11.96;42.32;100353.28;6210918;28;127866;-60
2021/03/01 02:37:48;;;;;;;;;28.00;24.60;;;;;11.96;42.41;100349.75;6225943;28;126099;-60
2021/03/01 02:40:51;;;;;;;;;23.60;21.40;;;;;11.95;42.69;100353.47;6210088;28;127109;-61
2021/03/01 02:43:52;;;;;;;;;30.00;25.60;;;;;11.95;42.59;100357.00;6186785;28;124908;-61
2021/03/01 02:46:54;;;;;;;;;23.60;23.20;;;;;11.93;42.61;100353.66;6199076;28;126526;-60
2021/03/01 02:49:59;;;;;;;;;26.00;24.20;;;;;11.86;42.62;100330.31;6203532;28;127260;-60
2021/03/01 02:53:02;;;;;;;;;29.40;26.00;;;;;11.96;42.40;100345.16;6187099;28;126824;-60
2021/03/01 02:56:04;;;;;;;;;24.00;21.00;;;;;11.73;42.65;100321.03;6186196;28;127489;-60
2021/03/01 02:59:09;;;;;;;;;25.50;24.00;;;;;11.84;42.68;100343.16;6184821;28;125217;-60
2021/03/01 03:02:11;;;;;;;;;25.60;23.40;;;;;11.62;42.63;100309.91;6185263;28;125901;-60
2021/03/01 03:05:14;;;;;;;;;31.00;26.40;;;;;11.84;42.69;100353.97;6183793;28;125914;-60
2021/03/01 03:08:17;;;;;;;;;23.00;21.00;;;;;11.86;42.75;100355.47;6170510;28;124363;-60
2021/03/01 03:11:20;;;;;;;;;27.00;24.00;;;;;11.62;42.78;100313.44;6208467;28;127747;-60
2021/03/01 03:14:25;;;;;;;;;27.20;24.00;;;;;11.62;42.66;100321.56;6209846;28;127321;-60
2021/03/01 03:17:28;;;;;;;;;28.20;25.80;;;;;11.87;42.78;100353.63;6208285;28;124630;-60
2021/03/01 03:20:30;;;;;;;;;27.80;26.80;;;;;11.87;43.15;100359.84;6208911;28;125608;-60
2021/03/01 03:23:31;;;;;;;;;28.00;27.00;;;;;11.85;42.86;100352.97;6209910;28;127527;-60
2021/03/01 03:26:33;;;;;;;;;30.25;28.00;;;;;11.78;43.12;100355.59;6208352;28;127512;-60
2021/03/01 03:29:36;;;;;;;;;28.00;27.00;;;;;11.63;43.15;100338.59;6191626;28;126748;-60
2021/03/01 03:32:37;;;;;;;;;26.50;24.00;;;;;11.81;42.99;100359.78;6208972;28;126284;-60
2021/03/01 03:35:40;;;;;;;;;28.20;26.20;;;;;11.83;43.26;100355.00;6204706;28;125384;-60
2021/03/01 03:38:47;;;;;;;;;27.40;25.40;;;;;11.80;43.12;100361.66;6189647;28;125709;-60
2021/03/01 03:41:52;;;;;;;;;27.40;25.00;;;;;11.80;43.20;100361.66;6198963;28;126912;-60
2021/03/01 03:44:55;;;;;;;;;27.00;24.75;;;;;11.83;43.19;100368.50;6207523;28;127118;-60
2021/03/01 03:48:03;;;;;;;;;28.40;25.20;;;;;11.82;43.20;100366.88;6207626;28;127114;-60
2021/03/01 03:51:08;;;;;;;;;24.75;23.00;;;;;11.81;43.13;100371.44;6223498;28;124923;-60
2021/03/01 03:54:24;;;;;;;;;30.25;26.25;;;;;11.61;43.36;100335.25;6208885;28;127126;-60
2021/03/01 03:57:30;;;;;;;;;31.25;28.00;;;;;11.77;43.42;100364.75;6208181;28;127120;-61
2021/03/01 04:00:33;;;;;;;;;32.20;29.00;;;;;11.79;43.48;100369.94;6208567;28;123847;-60
2021/03/01 04:03:36;;;;;;;;;33.25;29.00;;;;;11.82;43.27;100365.00;6208190;28;123904;-61
2021/03/01 04:06:40;;;;;;;;;28.20;25.20;;;;;11.86;43.29;100362.75;6208737;28;126694;-60
2021/03/01 04:09:45;;;;;;;;;31.60;27.00;;;;;11.88;43.35;100380.41;6193413;28;126666;-60
2021/03/01 04:12:50;;;;;;;;;30.00;28.67;;;;;11.80;43.40;100369.75;6183482;28;125575;-59
2021/03/01 04:15:52;;;;;;;;;29.20;25.60;;;;;11.50;43.53;100338.44;6183856;28;126047;-59
2021/03/01 04:18:56;;;;;;;;;37.80;33.00;;;;;11.68;43.63;100382.06;6183998;28;124935;-58
2021/03/01 04:22:01;;;;;;;;;38.00;32.40;;;;;11.71;43.75;100376.28;6183345;28;127444;-58
2021/03/01 04:25:06;;;;;;;;;29.60;27.60;;;;;11.64;43.63;100354.59;6184118;28;126132;-58
2021/03/01 04:28:08;;;;;;;;;30.75;26.00;;;;;11.54;43.54;100334.34;6198664;28;126643;-58
2021/03/01 04:31:10;;;;;;;;;31.50;28.50;;;;;11.71;43.22;100362.78;6183838;28;127075;-58
2021/03/01 04:34:13;;;;;;;;;31.40;28.00;;;;;11.79;43.64;100375.34;6183978;28;126165;-59
2021/03/01 04:37:14;;;;;;;;;35.40;30.80;;;;;11.77;43.53;100375.56;6183872;28;124957;-59
2021/03/01 04:40:17;;;;;;;;;28.25;25.75;;;;;11.76;43.52;100378.44;6186655;28;126328;-58
2021/03/01 04:43:20;;;;;;;;;31.60;27.60;;;;;11.76;43.73;100373.03;6193134;28;126227;-58
2021/03/01 04:46:22;;;;;;;;;29.00;27.00;;;;;11.73;43.83;100373.44;6187980;28;127206;-59
2021/03/01 04:49:25;;;;;;;;;31.60;29.00;;;;;11.65;43.72;100374.34;6185812;28;126207;-59
2021/03/01 04:52:30;;;;;;;;;35.00;30.00;;;;;11.36;43.86;100320.44;6186883;28;127283;-61
2021/03/01 04:55:33;;;;;;;;;26.20;24.20;;;;;11.68;43.98;100382.91;6188346;28;123889;-59
2021/03/01 04:58:38;;;;;;;;;31.67;27.00;;;;;11.69;44.04;100379.19;6188170;28;126950;-61
2021/03/01 05:01:41;;;;;;;;;36.40;29.40;;;;;11.65;43.88;100388.69;6200204;28;124995;-60
2021/03/01 05:04:43;;;;;;;;;33.40;29.00;;;;;11.69;43.94;100387.28;6211655;28;124954;-60
2021/03/01 05:07:46;;;;;;;;;32.60;28.60;;;;;11.72;43.86;100388.78;6210194;28;125515;-59
2021/03/01 05:10:48;;;;;;;;;31.00;27.00;;;;;11.76;44.03;100386.53;6191065;28;126200;-59
2021/03/01 05:13:49;;;;;;;;;30.00;28.00;;;;;11.80;43.88;100385.97;6185474;28;128048;-59
2021/03/01 05:16:51;;;;;;;;;31.60;30.00;;;;;11.71;43.63;100377.13;6186918;28;126641;-59
2021/03/01 05:19:52;;;;;;;;;32.80;29.60;;;;;11.75;43.83;100393.81;6202953;28;127949;-59
2021/03/01 05:22:54;;;;;;;;;32.40;27.40;;;;;11.53;43.94;100355.09;6211148;28;126797;-59
2021/03/01 05:25:55;;;;;;;;;32.00;27.00;;;;;11.76;43.76;100395.50;6210396;28;127950;-59
2021/03/01 05:28:57;;;;;;;;;31.20;26.20;;;;;11.73;43.86;100393.16;6209909;28;126863;-59
2021/03/01 05:31:58;;;;;;;;;34.25;29.50;;;;;11.79;44.00;100410.47;6208773;28;127237;-59
2021/03/01 05:35:08;;;;;;;;;34.60;29.60;;;;;11.82;43.96;100413.66;6198995;28;124849;-59
2021/03/01 05:38:09;;;;;;;;;34.25;30.00;;;;;11.64;44.00;100380.78;6197466;28;125516;-59
2021/03/01 05:41:12;;;;;;;;;34.20;29.20;;;;;11.77;43.86;100399.88;6196949;28;126589;-59
2021/03/01 05:44:13;;;;;;;;;36.00;31.60;;;;;11.86;43.95;100416.78;6191569;28;126374;-59
2021/03/01 05:47:16;;;;;;;;;35.60;30.00;;;;;11.88;43.83;100414.72;6199817;28;126048;-59
2021/03/01 05:50:18;;;;;;;;;32.00;28.50;;;;;11.85;43.81;100421.34;6188233;28;126148;-59
2021/03/01 05:53:26;;;;;;;;;32.40;29.40;;;;;11.82;43.89;100421.75;6185500;28;125896;-60
2021/03/01 05:56:28;;;;;;;;;33.00;30.00;;;;;11.64;43.95;100397.81;6195640;28;126725;-60
2021/03/01 05:59:30;;;;;;;;;34.00;30.00;;;;;11.79;44.22;100427.53;6186779;28;127045;-59
2021/03/01 06:02:32;;;;;;;;;34.00;30.00;;;;;11.78;44.23;100422.34;6195614;28;128344;-60
2021/03/01 06:05:35;;;;;;;;;33.40;29.40;;;;;11.62;44.07;100399.06;6198467;28;125493;-60
2021/03/01 06:08:36;;;;;;;;;33.00;28.00;;;;;11.89;43.90;100438.84;6193904;28;128569;-60
2021/03/01 06:11:37;;;;;;;;;39.80;32.20;;;;;11.87;44.12;100451.75;6201016;28;125163;-60
2021/03/01 06:14:39;;;;;;;;;33.60;30.00;;;;;11.67;44.28;100413.66;6199182;28;126156;-60
2021/03/01 06:17:40;;;;;;;;;35.20;31.00;;;;;11.91;44.04;100455.72;6188671;28;126201;-60
2021/03/01 06:20:42;;;;;;;;;34.40;30.00;;;;;11.92;44.17;100452.00;6209758;28;125080;-60
2021/03/01 06:23:45;;;;;;;;;33.25;30.00;;;;;11.93;44.09;100450.94;6210108;27;125292;-60
2021/03/01 06:26:47;;;;;;;;;36.80;30.00;;;;;11.87;44.22;100445.50;6208662;28;124344;-60
2021/03/01 06:30:06;;;;;;;;;37.20;32.00;;;;;11.94;44.17;100458.03;6209158;28;126659;-60
2021/03/01 06:33:11;;;;;;;;;33.00;29.00;;;;;11.96;44.10;100465.97;6200530;28;127479;-60
2021/03/01 06:36:14;;;;;;;;;36.25;31.25;;;;;12.04;44.04;100469.38;6190996;27;124963;-59
2021/03/01 06:39:29;;;;;;;;;35.00;31.00;;;;;12.07;44.08;100474.38;6198864;28;127726;-60
2021/03/01 06:42:31;;;;;;;;;37.40;31.40;;;;;12.09;43.96;100471.50;6208986;28;127186;-60
2021/03/01 06:45:32;;;;;;;;;31.80;29.00;;;;;12.10;44.05;100468.59;6208742;28;125481;-59
2021/03/01 06:48:40;;;;;;;;;36.00;32.00;;;;;12.10;44.24;100473.16;6209526;28;126461;-60
2021/03/01 06:51:41;;;;;;;;;35.40;30.40;;;;;11.91;44.28;100439.50;6209595;28;126456;-60
2021/03/01 06:54:45;;;;;;;;;35.00;30.00;;;;;12.07;44.32;100477.09;6209923;28;125489;-60
2021/03/01 06:57:47;;;;;;;;;36.75;31.75;;;;;11.96;44.26;100455.16;6209051;28;128249;-60
2021/03/01 07:00:58;;;;;;;;;32.40;30.00;;;;;12.17;44.20;100481.34;6208138;28;125855;-60
2021/03/01 07:04:03;;;;;;;;;36.80;30.20;;;;;12.14;44.17;100474.44;6209367;28;127809;-60
2021/03/01 07:07:07;;;;;;;;;32.75;30.00;;;;;12.00;44.00;100445.63;6209469;28;124556;-60
2021/03/01 07:10:10;;;;;;;;;31.60;29.60;;;;;12.12;44.02;100458.41;6208265;28;125198;-60
2021/03/01 07:13:26;;;;;;;;;33.00;29.00;;;;;12.28;43.98;100481.66;6208688;28;127342;-60
2021/03/01 07:16:28;;;;;;;;;32.50;28.75;;;;;12.36;44.06;100497.78;6209326;28;126242;-60
2021/03/01 07:19:32;;;;;;;;;34.40;30.00;;;;;12.38;44.13;100506.50;6209303;28;127681;-60
2021/03/01 07:22:37;;;;;;;;;36.00;31.00;;;;;12.47;43.87;100497.22;6209214;28;124828;-60
2021/03/01 07:25:40;;;;;;;;;34.50;30.50;;;;;12.46;44.17;100495.53;6209120;28;127138;-60
2021/03/01 07:28:48;;;;;;;;;31.60;28.80;;;;;12.50;44.08;100507.69;6208686;28;125065;-60
2021/03/01 07:31:58;;;;;;;;;33.00;27.00;;;;;12.53;44.19;100511.84;6208481;28;126470;-60
2021/03/01 07:35:01;;;;;;;;;34.60;30.00;;;;;12.56;43.98;100516.84;6208748;28;125459;-60
2021/03/01 07:38:04;;;;;;;;;32.20;29.00;;;;;12.59;44.09;100511.06;6201967;28;126327;-60
2021/03/01 07:41:08;;;;;;;;;34.00;29.00;;;;;12.44;43.91;100491.38;6183634;28;124746;-60
2021/03/01 07:44:10;;;;;;;;;31.60;28.00;;;;;12.68;43.82;100519.88;6199341;28;124943;-60
2021/03/01 07:47:13;;;;;;;;;31.40;27.60;;;;;12.66;43.69;100528.19;6183818;28;126075;-60
2021/03/01 07:50:35;;;;;;;;;32.20;27.00;;;;;12.51;44.07;100516.63;6183808;28;124169;-60
2021/03/01 07:53:53;;;;;;;;;29.80;26.40;;;;;12.51;44.28;100530.16;6182512;28;125008;-60
2021/03/01 07:56:54;;;;;;;;;31.80;27.20;;;;;12.56;44.20;100530.38;6192323;28;125026;-60
2021/03/01 07:59:57;;;;;;;;;28.40;26.40;;;;;12.44;44.09;100523.84;6208889;28;127681;-60
2021/03/01 08:02:59;;;;;;;;;31.00;28.00;;;;;12.51;44.15;100530.97;6208666;28;127198;-60
2021/03/01 08:06:01;;;;;;;;;30.60;27.40;;;;;12.65;43.95;100537.38;6208689;28;126993;-59
2021/03/01 08:09:03;;;;;;;;;31.40;28.40;;;;;12.65;44.15;100544.63;6208541;28;127409;-59
2021/03/01 08:12:04;;;;;;;;;30.80;26.00;;;;;12.52;44.16;100526.41;6208236;28;127817;-59
2021/03/01 08:15:08;;;;;;;;;28.00;25.00;;;;;12.48;44.03;100517.00;6207217;28;125656;-59
2021/03/01 08:18:12;;;;;;;;;28.20;25.00;;;;;12.66;44.08;100544.41;6208234;28;126246;-60
2021/03/01 08:21:13;;;;;;;;;31.25;27.25;;;;;12.63;44.23;100549.41;6207923;28;124954;-59
2021/03/01 08:24:43;;;;;;;;;30.40;26.20;;;;;12.58;44.23;100550.81;6205809;28;127445;-59
2021/03/01 08:27:45;;;;;;;;;28.00;25.60;;;;;12.57;44.09;100554.56;6208162;28;126916;-59
2021/03/01 08:30:47;;;;;;;;;31.60;28.00;;;;;12.58;44.21;100553.53;6223940;28;127608;-59
2021/03/01 08:33:50;;;;;;;;;27.00;24.00;;;;;12.56;44.40;100549.31;6208760;28;126129;-59
2021/03/01 08:36:59;;;;;;;;;27.75;24.75;;;;;12.64;43.90;100549.22;6208422;28;125992;-59
2021/03/01 08:40:03;;;;;;;;;30.80;28.00;;;;;12.68;43.98;100566.72;6207287;28;125032;-59
2021/03/01 08:43:06;;;;;;;;;30.00;25.00;;;;;12.66;44.01;100555.25;6207860;28;125861;-59
2021/03/01 08:46:13;;;;;;;;;27.00;25.00;;;;;12.70;44.20;100566.53;6207931;28;125262;-59
2021/03/01 08:49:23;;;;;;;;;28.40;23.80;;;;;12.71;44.14;100565.50;6222324;28;126698;-60
2021/03/01 08:52:28;;;;;;;;;30.00;26.40;;;;;12.69;44.13;100564.88;6204827;28;125853;-60
2021/03/01 08:55:33;;;;;;;;;34.00;27.60;;;;;12.69;43.98;100570.28;6183238;28;126307;-60
2021/03/01 08:58:35;;;;;;;;;29.20;26.60;;;;;12.62;43.95;100564.78;6183274;28;124788;-60
2021/03/01 09:01:48;;;;;;;;;26.25;24.25;;;;;12.72;44.04;100578.84;6187568;28;125132;-60
2021/03/01 09:05:05;;;;;;;;;27.40;25.40;;;;;12.78;43.83;100582.63;6207624;28;127103;-60
2021/03/01 09:08:09;;;;;;;;;31.00;25.80;;;;;12.71;43.79;100549.25;6206289;28;127866;-60
2021/03/01 09:11:15;;;;;;;;;27.00;24.00;;;;;12.96;43.40;100578.41;6222628;28;125485;-60
2021/03/01 09:14:17;;;;;;;;;30.00;25.00;;;;;12.98;43.26;100586.34;6207969;28;125754;-60
2021/03/01 09:17:18;;;;;;;;;26.33;23.67;;;;;12.97;43.32;100584.66;6207631;28;126760;-60
2021/03/01 09:20:20;;;;;;;;;28.00;24.00;;;;;13.02;43.04;100582.22;6208125;28;126924;-60
2021/03/01 09:23:41;;;;;;;;;24.60;21.60;;;;;13.06;42.92;100594.31;6195715;28;125008;-60
2021/03/01 09:26:45;;;;;;;;;29.00;26.00;;;;;13.08;43.00;100589.56;6187152;28;124923;-60
2021/03/01 09:29:46;;;;;;;;;28.00;22.00;;;;;13.09;42.78;100590.41;6186942;28;126996;-60
2021/03/01 09:33:05;;;;;;;;;25.20;22.60;;;;;13.07;42.86;100593.28;6186685;28;125527;-60
2021/03/01 09:36:10;;;;;;;;;25.00;21.50;;;;;13.09;42.79;100593.09;6187039;28;126173;-60
2021/03/01 09:39:17;;;;;;;;;27.60;22.80;;;;;13.12;42.46;100593.56;6186765;28;128596;-60
2021/03/01 09:42:22;;;;;;;;;23.00;20.00;;;;;13.22;42.39;100598.66;6185303;28;125805;-60
2021/03/01 09:45:24;;;;;;;;;22.00;20.00;;;;;13.22;42.29;100594.06;6201829;28;125628;-60
2021/03/01 09:48:28;;;;;;;;;25.00;23.00;;;;;13.22;42.48;100595.94;6186665;28;126550;-60
2021/03/01 09:51:31;;;;;;;;;27.33;24.00;;;;;13.27;42.50;100601.59;6186179;28;125005;-60
2021/03/01 09:54:33;;;;;;;;;29.00;25.60;;;;;13.23;42.01;100582.22;6185138;28;126259;-60
2021/03/01 09:57:34;;;;;;;;;25.00;22.25;;;;;13.40;42.19;100601.69;6185904;28;127662;-60
2021/03/01 10:00:36;;;;;;;;;24.75;22.00;;;;;13.48;41.79;100600.72;6185986;28;128383;-60
2021/03/01 10:03:42;;;;;;;;;27.25;23.00;;;;;13.63;41.70;100598.72;6185646;28;125563;-60
2021/03/01 10:06:43;;;;;;;;;19.60;18.40;;;;;13.65;41.28;100574.94;6186611;28;126036;-60
2021/03/01 10:09:46;;;;;;;;;21.00;18.40;;;;;13.86;40.91;100597.38;6185851;28;127651;-60
2021/03/01 10:12:49;;;;;;;;;21.60;18.40;;;;;13.90;40.47;100624.91;6186849;28;126510;-60
2021/03/01 10:15:54;;;;;;;;;21.20;18.80;;;;;13.87;40.34;100596.34;6168226;28;125817;-60
2021/03/01 10:18:56;;;;;;;;;22.00;20.00;;;;;13.62;40.38;100572.66;6186770;28;125184;-59
2021/03/01 10:22:00;;;;;;;;;20.50;19.00;;;;;13.40;40.45;100533.94;6183898;28;126175;-59
2021/03/01 10:25:03;;;;;;;;;23.00;19.60;;;;;13.89;40.47;100609.69;6184991;28;126477;-59
2021/03/01 10:28:24;;;;;;;;;25.75;20.00;;;;;13.90;40.50;100608.66;6184480;28;126119;-59
2021/03/01 10:31:33;;;;;;;;;18.00;17.00;;;;;13.89;40.33;100610.53;6183577;28;127230;-59
2021/03/01 10:34:36;;;;;;;;;20.00;17.00;;;;;13.91;40.71;100620.34;6185469;28;126069;-60
2021/03/01 10:37:37;;;;;;;;;21.40;19.40;;;;;13.93;40.35;100616.38;6184439;28;126107;-60
2021/03/01 10:40:39;;;;;;;;;22.20;19.00;;;;;13.98;40.54;100621.19;6186388;28;126309;-60
2021/03/01 10:44:00;;;;;;;;;26.00;21.50;;;;;14.05;40.38;100616.66;6197400;28;124875;-60
2021/03/01 10:47:22;;;;;;;;;20.00;19.00;;;;;14.02;40.41;100611.63;6209894;28;125891;-60
2021/03/01 10:50:23;;;;;;;;;21.00;19.60;;;;;13.98;40.21;100602.19;6225468;28;124850;-60
2021/03/01 10:53:25;;;;;;;;;21.00;20.00;;;;;14.03;40.21;100610.56;6210104;28;126613;-60
2021/03/01 10:56:26;;;;;;;;;25.00;21.40;;;;;13.99;40.38;100607.44;6209501;28;124863;-60
2021/03/01 10:59:28;;;;;;;;;23.60;20.60;;;;;14.06;40.17;100602.88;6225204;28;126431;-60
2021/03/01 11:02:29;;;;;;;;;18.75;18.00;;;;;13.78;40.22;100562.28;6210164;28;126510;-60
2021/03/01 11:05:31;;;;;;;;;21.60;20.00;;;;;14.01;39.83;100604.53;6210022;28;126792;-60
2021/03/01 11:08:51;;;;;;;;;20.40;18.00;;;;;13.96;40.31;100605.13;6209994;28;127019;-60
2021/03/01 11:11:53;;;;;;;;;20.00;18.00;;;;;13.60;40.41;100562.00;6208047;28;127757;-60
2021/03/01 11:14:55;;;;;;;;;21.00;18.50;;;;;13.77;40.56;100617.56;6188535;28;126351;-60
2021/03/01 11:17:56;;;;;;;;;20.75;18.75;;;;;13.81;40.60;100621.53;6184828;28;126604;-60
2021/03/01 11:20:59;;;;;;;;;20.50;19.00;;;;;13.85;40.23;100630.94;6185653;28;125034;-60
2021/03/01 11:24:00;;;;;;;;;17.50;16.00;;;;;13.84;40.26;100618.41;6184889;28;126230;-60
2021/03/01 11:27:02;;;;;;;;;19.50;17.00;;;;;13.92;40.07;100630.16;6184531;28;125563;-60
2021/03/01 11:30:04;;;;;;;;;22.25;18.25;;;;;13.97;40.31;100622.25;6184451;28;126512;-60
2021/03/01 11:33:07;;;;;;;;;20.40;18.60;;;;;13.58;39.91;100564.09;6183104;28;126775;-60
2021/03/01 11:36:09;;;;;;;;;20.00;18.00;;;;;13.92;39.87;100622.84;6185334;28;126433;-60
2021/03/01 11:39:16;;;;;;;;;22.40;20.00;;;;;14.03;39.81;100613.28;6184623;28;124577;-60
2021/03/01 11:42:17;;;;;;;;;19.00;17.00;;;;;14.08;39.75;100619.78;6183207;28;125865;-60
2021/03/01 11:45:19;;;;;;;;;19.60;18.20;;;;;13.95;39.75;100602.63;6183614;28;125271;-60
2021/03/01 11:48:20;;;;;;;;;20.00;19.00;;;;;14.12;39.76;100612.91;6185331;28;125288;-60
2021/03/01 11:51:22;;;;;;;;;17.20;15.20;;;;;14.12;39.51;100603.97;6183791;28;127517;-60
2021/03/01 11:54:23;;;;;;;;;19.00;17.00;;;;;14.15;39.37;100604.38;6185338;28;126590;-60
2021/03/01 11:57:27;;;;;;;;;15.40;13.60;;;;;14.32;38.93;100613.81;6183698;28;126660;-59
2021/03/01 12:00:29;;;;;;;;;19.40;17.00;;;;;14.50;39.01;100612.44;6186499;28;125659;-59
2021/03/01 12:03:33;;;;;;;;;15.00;14.60;;;;;14.59;38.75;100617.47;6195759;28;124508;-59
2021/03/01 12:06:34;;;;;;;;;18.00;17.00;;;;;14.77;38.57;100619.59;6207532;28;126529;-60
2021/03/01 12:09:36;;;;;;;;;21.00;19.00;;;;;14.76;38.21;100617.09;6181161;28;124253;-59
2021/03/01 12:12:38;;;;;;;;;17.40;16.40;;;;;14.55;38.23;100583.66;6188204;28;126203;-59
2021/03/01 12:15:39;;;;;;;;;22.00;18.00;;;;;14.73;38.20;100621.06;6207954;28;125472;-59
2021/03/01 12:18:41;;;;;;;;;17.00;15.00;;;;;14.76;38.12;100615.19;6188796;28;127192;-60
2021/03/01 12:21:42;;;;;;;;;19.00;18.00;;;;;14.71;38.13;100623.13;6184593;28;126948;-60
2021/03/01 12:24:44;;;;;;;;;18.40;17.40;;;;;14.57;38.10;100594.28;6183827;28;125558;-60
2021/03/01 12:27:45;;;;;;;;;18.60;17.00;;;;;14.72;38.30;100612.06;6184052;28;127426;-60
2021/03/01 12:30:48;;;;;;;;;21.75;18.00;;;;;14.83;38.47;100609.78;6202515;28;125223;-60
2021/03/01 12:33:50;;;;;;;;;17.00;15.20;;;;;14.71;38.39;100569.66;6200287;28;126017;-60
2021/03/01 12:36:52;;;;;;;;;19.60;18.00;;;;;15.05;37.69;100612.06;6196010;28;124736;-60
2021/03/01 12:40:08;;;;;;;;;17.00;15.60;;;;;14.99;37.70;100583.06;6198794;28;126073;-60
2021/03/01 12:43:10;;;;;;;;;18.00;15.00;;;;;15.28;37.42;100616.28;6196832;28;126465;-60
2021/03/01 12:46:12;;;;;;;;;18.80;16.80;;;;;15.34;37.28;100610.00;6207655;28;127452;-60
2021/03/01 12:49:13;;;;;;;;;20.00;18.00;;;;;15.24;36.96;100601.44;6206637;28;127082;-60
2021/03/01 12:52:15;;;;;;;;;18.00;16.00;;;;;15.35;36.98;100614.38;6204791;28;127617;-60
2021/03/01 12:55:16;;;;;;;;;20.60;17.60;;;;;15.13;36.97;100592.88;6206428;28;126112;-59
2021/03/01 12:58:17;;;;;;;;;20.00;19.00;;;;;15.27;37.20;100615.44;6205473;28;127746;-60
2021/03/01 13:01:19;;;;;;;;;20.60;19.00;;;;;15.25;37.43;100613.97;6210270;28;125356;-60
2021/03/01 13:04:40;;;;;;;;;17.40;16.60;;;;;15.29;37.26;100605.19;6211875;28;127150;-60
2021/03/01 13:07:41;;;;;;;;;22.00;18.00;;;;;15.36;36.98;100606.00;6209941;28;125705;-60
2021/03/01 13:10:43;;;;;;;;;18.80;16.80;;;;;15.42;36.85;100598.91;6210819;28;127608;-60
2021/03/01 13:13:46;;;;;;;;;18.00;16.75;;;;;15.16;36.80;100569.88;6211660;28;127308;-60
2021/03/01 13:16:48;;;;;;;;;18.60;17.00;;;;;15.38;36.77;100601.22;6211786;28;125250;-60
2021/03/01 13:19:49;;;;;;;;;21.60;20.00;;;;;15.31;36.96;100608.53;6210998;28;126591;-60
2021/03/01 13:22:51;;;;;;;;;20.00;18.00;;;;;14.98;37.27;100542.50;6211373;28;126419;-60
2021/03/01 13:25:53;;;;;;;;;21.00;19.00;;;;;15.17;37.68;100599.56;6206054;28;126737;-59
2021/03/01 13:28:56;;;;;;;;;17.20;17.20;;;;;15.18;37.46;100597.69;6210502;28;128061;-60
2021/03/01 13:31:58;;;;;;;;;20.00;18.00;;;;;15.10;37.51;100590.56;6209917;28;125030;-59
2021/03/01 13:35:19;;;;;;;;;20.00;18.40;;;;;15.04;37.42;100577.84;6206547;28;124890;-59
2021/03/01 13:38:22;;;;;;;;;18.00;16.80;;;;;14.98;37.62;100581.38;6207554;28;126356;-60
2021/03/01 13:41:43;;;;;;;;;27.00;22.00;;;;;14.99;37.88;100588.50;6208293;28;125869;-59
2021/03/01 13:44:45;;;;;;;;;24.00;21.00;;;;;14.60;37.85;100536.88;6210027;28;127922;-59
2021/03/01 13:47:46;;;;;;;;;28.20;25.60;;;;;14.74;38.06;100571.97;6210892;28;126559;-60